createdAt,value
2022-07-28T00:01:25.236Z,98062.00
2022-07-28T00:03:56.219Z,98061.00
2022-07-28T00:06:27.140Z,98061.00
2022-07-28T00:08:58.037Z,98056.00
2022-07-28T00:11:28.903Z,98051.00
2022-07-28T00:13:59.818Z,98042.00
2022-07-28T00:16:30.777Z,98048.00
2022-07-28T00:19:02.426Z,98048.00
2022-07-28T00:21:33.326Z,98045.00
2022-07-28T00:24:04.355Z,98036.00
2022-07-28T00:26:35.395Z,98039.00
2022-07-28T00:29:06.539Z,98034.00
2022-07-28T00:31:37.435Z,98026.00
2022-07-28T00:34:08.700Z,98028.00
2022-07-28T00:36:39.802Z,98036.00
2022-07-28T00:39:10.672Z,98031.00
2022-07-28T00:41:42.712Z,98029.00
2022-07-28T00:44:14.096Z,98031.00
2022-07-28T00:46:45.734Z,98029.00
2022-07-28T00:49:17.075Z,98027.00
2022-07-28T00:51:48.623Z,98035.00
2022-07-28T00:54:19.995Z,98027.00
2022-07-28T00:56:50.851Z,98035.00
2022-07-28T00:59:21.796Z,98032.00
2022-07-28T01:01:54.657Z,98031.00
2022-07-28T01:04:26.063Z,98032.00
2022-07-28T01:07:02.688Z,98030.00
2022-07-28T01:09:53.108Z,98025.00
2022-07-28T01:12:36.884Z,98018.00
2022-07-28T01:15:19.344Z,98027.00
2022-07-28T01:18:08.822Z,98014.00
2022-07-28T01:20:47.902Z,98015.00
2022-07-28T01:23:42.045Z,98022.00
2022-07-28T01:27:04.398Z,98007.00
2022-07-28T01:30:07.375Z,98013.00
2022-07-28T01:32:52.893Z,98004.00
2022-07-28T01:35:27.656Z,98000.00
2022-07-28T01:38:03.809Z,97999.00
2022-07-28T01:40:36.808Z,98003.00
2022-07-28T01:43:13.384Z,98004.00
2022-07-28T01:45:45.497Z,98001.00
2022-07-28T01:48:20.179Z,98005.00
2022-07-28T01:50:53.786Z,97995.00
2022-07-28T01:53:26.219Z,97997.00
2022-07-28T01:56:00.027Z,97996.00
2022-07-28T01:58:32.290Z,97996.00
2022-07-28T02:01:04.828Z,97985.00
2022-07-28T02:03:37.390Z,97982.00
2022-07-28T02:06:09.788Z,97985.00
2022-07-28T02:08:42.776Z,97980.00
2022-07-28T02:11:32.483Z,97979.00
2022-07-28T02:14:04.570Z,97985.00
2022-07-28T02:16:36.108Z,97983.00
2022-07-28T02:19:07.677Z,97986.00
2022-07-28T02:21:39.487Z,97978.00
2022-07-28T02:24:12.437Z,97972.00
2022-07-28T02:26:49.968Z,97980.00
2022-07-28T02:29:49.137Z,97965.00
2022-07-28T02:32:29.074Z,97972.00
2022-07-28T02:35:10.177Z,97968.00
2022-07-28T02:37:50.950Z,97964.00
2022-07-28T02:40:23.624Z,97964.00
2022-07-28T02:42:55.738Z,97958.00
2022-07-28T02:45:28.405Z,97957.00
2022-07-28T02:48:07.009Z,97962.00
2022-07-28T02:50:41.068Z,97962.00
2022-07-28T02:53:16.143Z,97965.00
2022-07-28T02:55:48.858Z,97974.00
2022-07-28T02:58:24.306Z,97960.00
2022-07-28T03:00:56.805Z,97949.00
2022-07-28T03:03:28.832Z,97960.00
2022-07-28T03:05:59.857Z,97959.00
2022-07-28T03:08:31.581Z,97954.00
2022-07-28T03:11:11.258Z,97957.00
2022-07-28T03:13:42.575Z,97950.00
2022-07-28T03:16:14.358Z,97960.00
2022-07-28T03:18:45.473Z,97958.00
2022-07-28T03:21:16.457Z,97958.00
2022-07-28T03:23:49.838Z,97957.00
2022-07-28T03:26:41.221Z,97967.00
2022-07-28T03:29:12.550Z,97972.00
2022-07-28T03:31:48.092Z,97964.00
2022-07-28T03:34:19.152Z,97968.00
2022-07-28T03:36:57.296Z,97965.00
2022-07-28T03:39:34.462Z,97967.00
2022-07-28T03:42:06.479Z,97970.00
2022-07-28T03:44:39.572Z,97970.00
2022-07-28T03:47:10.667Z,97976.00
2022-07-28T03:49:45.878Z,97968.00
2022-07-28T03:52:20.105Z,97975.00
2022-07-28T03:54:51.817Z,97976.00
2022-07-28T03:57:22.921Z,97978.00
2022-07-28T03:59:53.983Z,97976.00
2022-07-28T04:02:25.146Z,97975.00
2022-07-28T04:04:56.290Z,97981.00
2022-07-28T04:07:27.378Z,97980.00
2022-07-28T04:09:58.423Z,97981.00
2022-07-28T04:12:29.381Z,97986.00
2022-07-28T04:15:00.410Z,97987.00
2022-07-28T04:17:31.429Z,97986.00
2022-07-28T04:20:02.505Z,97985.00
2022-07-28T04:22:34.336Z,97990.00
2022-07-28T04:25:06.897Z,97990.00
2022-07-28T04:27:38.192Z,97985.00
2022-07-28T04:30:17.766Z,97986.00
2022-07-28T04:32:52.778Z,97990.00
2022-07-28T04:35:25.087Z,97988.00
2022-07-28T04:37:58.685Z,97983.00
2022-07-28T04:40:29.949Z,97993.00
2022-07-28T04:43:01.093Z,97985.00
2022-07-28T04:45:32.332Z,97985.00
2022-07-28T04:48:03.645Z,97981.00
2022-07-28T04:50:34.691Z,97983.00
2022-07-28T04:53:05.773Z,97978.00
2022-07-28T04:55:39.059Z,97982.00
2022-07-28T04:58:10.185Z,97982.00
2022-07-28T05:00:41.457Z,97976.00
2022-07-28T05:03:13.301Z,97983.00
2022-07-28T05:05:44.456Z,97985.00
2022-07-28T05:08:20.213Z,97981.00
2022-07-28T05:10:52.605Z,97988.00
2022-07-28T05:13:28.910Z,97976.00
2022-07-28T05:16:04.127Z,97990.00
2022-07-28T05:18:35.513Z,97988.00
2022-07-28T05:21:06.684Z,97987.00
2022-07-28T05:23:37.837Z,97984.00
2022-07-28T05:26:08.901Z,97988.00
2022-07-28T05:28:40.304Z,97985.00
2022-07-28T05:31:11.522Z,97982.00
2022-07-28T05:33:42.659Z,97977.00
2022-07-28T05:36:14.034Z,97980.00
2022-07-28T05:38:45.102Z,97986.00
2022-07-28T05:41:16.126Z,97979.00
2022-07-28T05:43:47.191Z,97977.00
2022-07-28T05:46:18.381Z,97975.00
2022-07-28T05:48:49.608Z,97987.00
2022-07-28T05:51:20.614Z,97980.00
2022-07-28T05:53:51.993Z,97983.00
2022-07-28T05:56:23.141Z,97985.00
2022-07-28T05:58:54.280Z,97990.00
2022-07-28T06:01:25.443Z,97984.00
2022-07-28T06:04:25.166Z,97984.00
2022-07-28T06:06:48.654Z,97996.00
2022-07-28T06:09:19.842Z,97981.00
2022-07-28T06:11:51.155Z,97981.00
2022-07-28T06:14:22.238Z,97981.00
2022-07-28T06:16:54.113Z,97981.00
2022-07-28T06:19:25.199Z,97986.00
2022-07-28T06:21:56.209Z,97976.00
2022-07-28T06:24:27.286Z,97988.00
2022-07-28T06:26:58.451Z,97989.00
2022-07-28T06:29:30.411Z,97984.00
2022-07-28T06:32:01.578Z,97983.00
2022-07-28T06:34:33.807Z,97981.00
2022-07-28T06:37:05.281Z,97984.00
2022-07-28T06:39:36.295Z,97984.00
2022-07-28T06:42:07.502Z,97982.00
2022-07-28T06:44:57.778Z,97974.00
2022-07-28T06:47:29.181Z,97977.00
2022-07-28T06:50:00.698Z,97983.00
2022-07-28T06:52:32.703Z,97981.00
2022-07-28T06:55:05.696Z,97979.00
2022-07-28T06:57:37.854Z,97980.00
2022-07-28T07:00:12.272Z,97981.00
2022-07-28T07:02:43.873Z,97979.00
2022-07-28T07:05:15.791Z,97982.00
2022-07-28T07:07:46.991Z,97981.00
2022-07-28T07:10:18.165Z,97977.00
2022-07-28T07:12:50.042Z,97974.00
2022-07-28T07:15:21.229Z,97968.00
2022-07-28T07:17:54.176Z,97971.00
2022-07-28T07:20:25.289Z,97962.00
2022-07-28T07:22:56.342Z,97964.00
2022-07-28T07:25:27.556Z,97962.00
2022-07-28T07:27:58.697Z,97967.00
2022-07-28T07:30:29.957Z,97953.00
2022-07-28T07:33:01.066Z,97964.00
2022-07-28T07:35:33.479Z,97963.00
2022-07-28T07:38:04.863Z,97959.00
2022-07-28T07:40:35.965Z,97960.00
2022-07-28T07:43:07.058Z,97959.00
2022-07-28T07:45:40.886Z,97956.00
2022-07-28T07:48:11.934Z,97956.00
2022-07-28T07:50:42.909Z,97965.00
2022-07-28T07:53:13.896Z,97951.00
2022-07-28T07:55:44.974Z,97965.00
2022-07-28T07:58:16.197Z,97960.00
2022-07-28T08:00:47.432Z,97958.00
2022-07-28T08:03:22.572Z,97959.00
2022-07-28T08:05:56.534Z,97949.00
2022-07-28T08:08:28.534Z,97955.00
2022-07-28T08:10:59.608Z,97954.00
2022-07-28T08:13:34.935Z,97949.00
2022-07-28T08:16:06.517Z,97955.00
2022-07-28T08:18:38.035Z,97948.00
2022-07-28T08:21:09.127Z,97940.00
2022-07-28T08:23:40.315Z,97947.00
2022-07-28T08:26:11.311Z,97948.00
2022-07-28T08:28:42.458Z,97946.00
2022-07-28T08:31:13.551Z,97940.00
2022-07-28T08:33:53.618Z,97950.00
2022-07-28T08:36:25.552Z,97942.00
2022-07-28T08:38:56.503Z,97944.00
2022-07-28T08:41:38.775Z,97945.00
2022-07-28T08:44:15.589Z,97941.00
2022-07-28T08:46:49.306Z,97951.00
2022-07-28T08:49:20.973Z,97944.00
2022-07-28T08:51:54.916Z,97949.00
2022-07-28T08:54:28.796Z,97948.00
2022-07-28T08:57:00.355Z,97937.00
2022-07-28T08:59:32.041Z,97933.00
2022-07-28T09:02:03.209Z,97924.00
2022-07-28T09:04:37.115Z,97917.00
2022-07-28T09:07:08.618Z,97929.00
2022-07-28T09:09:40.233Z,97924.00
2022-07-28T09:12:11.353Z,97927.00
2022-07-28T09:14:42.575Z,97933.00
2022-07-28T09:17:13.733Z,97923.00
2022-07-28T09:19:44.869Z,97926.00
2022-07-28T09:22:15.911Z,97922.00
2022-07-28T09:24:47.030Z,97926.00
2022-07-28T09:27:18.261Z,97916.00
2022-07-28T09:30:00.252Z,97916.00
2022-07-28T09:32:31.489Z,97908.00
2022-07-28T09:35:02.771Z,97913.00
2022-07-28T09:37:33.769Z,97916.00
2022-07-28T09:40:12.528Z,97915.00
2022-07-28T09:42:50.285Z,97907.00
2022-07-28T09:45:28.009Z,97911.00
2022-07-28T09:48:13.460Z,97915.00
2022-07-28T09:50:45.664Z,97906.00
2022-07-28T09:53:28.305Z,97904.00
2022-07-28T09:56:02.091Z,97892.00
2022-07-28T09:58:33.310Z,97895.00
2022-07-28T10:01:13.671Z,97896.00
2022-07-28T10:03:56.018Z,97893.00
2022-07-28T10:06:32.901Z,97890.00
2022-07-28T10:09:07.939Z,97894.00
2022-07-28T10:11:41.737Z,97884.00
2022-07-28T10:14:14.030Z,97882.00
2022-07-28T10:16:53.330Z,97882.00
2022-07-28T10:19:24.637Z,97871.00
2022-07-28T10:21:57.665Z,97868.00
2022-07-28T10:24:31.904Z,97871.00
2022-07-28T10:27:05.789Z,97863.00
2022-07-28T10:29:40.056Z,97863.00
2022-07-28T10:32:14.901Z,97859.00
2022-07-28T10:35:09.025Z,97862.00
2022-07-28T10:38:05.520Z,97860.00
2022-07-28T10:40:42.153Z,97865.00
2022-07-28T10:43:14.761Z,97863.00
2022-07-28T10:48:38.926Z,97850.00
2022-07-28T10:51:10.506Z,97842.00
2022-07-28T10:53:54.637Z,97844.00
2022-07-28T10:56:51.397Z,97844.00
2022-07-28T11:00:13.175Z,97847.00
2022-07-28T11:03:13.928Z,97844.00
2022-07-28T11:05:46.104Z,97846.00
2022-07-28T11:08:17.156Z,97842.00
2022-07-28T11:10:51.199Z,97851.00
2022-07-28T11:13:32.970Z,97850.00
2022-07-28T11:16:13.564Z,97842.00
2022-07-28T11:19:36.746Z,97836.00
2022-07-28T11:22:19.217Z,97833.00
2022-07-28T11:25:18.501Z,97827.00
2022-07-28T11:27:51.876Z,97832.00
2022-07-28T11:30:28.851Z,97843.00
2022-07-28T11:33:02.297Z,97835.00
2022-07-28T11:35:39.752Z,97827.00
2022-07-28T11:38:14.904Z,97838.00
2022-07-28T11:40:52.661Z,97835.00
2022-07-28T11:43:35.985Z,97836.00
2022-07-28T11:46:11.283Z,97830.00
2022-07-28T11:48:47.079Z,97832.00
2022-07-28T11:51:18.956Z,97840.00
2022-07-28T11:53:53.091Z,97840.00
2022-07-28T11:56:31.604Z,97831.00
2022-07-28T11:59:05.300Z,97828.00
2022-07-28T12:01:37.105Z,97814.00
2022-07-28T12:04:15.392Z,97816.00
2022-07-28T12:06:51.520Z,97823.00
2022-07-28T12:09:41.550Z,97814.00
2022-07-28T12:12:13.584Z,97819.00
2022-07-28T12:14:46.456Z,97814.00
2022-07-28T12:17:17.702Z,97818.00
2022-07-28T12:19:49.357Z,97817.00
2022-07-28T12:22:20.437Z,97815.00
2022-07-28T12:24:57.901Z,97808.00
2022-07-28T12:27:31.809Z,97809.00
2022-07-28T12:30:03.797Z,97804.00
2022-07-28T12:32:35.843Z,97805.00
2022-07-28T12:35:07.644Z,97803.00
2022-07-28T12:37:38.887Z,97813.00
2022-07-28T12:40:13.479Z,97811.00
2022-07-28T12:42:53.749Z,97804.00
2022-07-28T12:45:26.400Z,97808.00
2022-07-28T12:48:06.229Z,97803.00
2022-07-28T12:50:38.729Z,97797.00
2022-07-28T12:53:12.707Z,97808.00
2022-07-28T12:55:44.170Z,97798.00
2022-07-28T12:58:24.704Z,97792.00
2022-07-28T13:00:56.455Z,97793.00
2022-07-28T13:03:29.628Z,97798.00
2022-07-28T13:06:11.802Z,97785.00
2022-07-28T13:08:46.106Z,97793.00
2022-07-28T13:11:41.844Z,97792.00
2022-07-28T13:14:08.720Z,97790.00
2022-07-28T13:16:39.904Z,97784.00
2022-07-28T13:19:21.569Z,97784.00
2022-07-28T13:22:01.609Z,97782.00
2022-07-28T13:24:34.189Z,97780.00
2022-07-28T13:27:06.902Z,97786.00
2022-07-28T13:29:37.942Z,97782.00
2022-07-28T13:32:09.090Z,97781.00
2022-07-28T13:34:40.242Z,97781.00
2022-07-28T13:37:12.980Z,97773.00
2022-07-28T13:39:44.501Z,97774.00
2022-07-28T13:42:15.570Z,97773.00
2022-07-28T13:44:47.193Z,97777.00
2022-07-28T13:47:19.571Z,97774.00
2022-07-28T13:49:51.394Z,97767.00
2022-07-28T13:52:33.160Z,97754.00
2022-07-28T13:55:07.297Z,97766.00
2022-07-28T13:57:38.360Z,97765.00
2022-07-28T14:00:16.852Z,97758.00
2022-07-28T14:02:49.167Z,97765.00
2022-07-28T14:05:21.134Z,97758.00
2022-07-28T14:07:52.233Z,97760.00
2022-07-28T14:10:26.620Z,97751.00
2022-07-28T14:12:58.694Z,97751.00
2022-07-28T14:15:29.727Z,97745.00
2022-07-28T14:18:00.874Z,97746.00
2022-07-28T14:20:32.024Z,97740.00
2022-07-28T14:23:04.069Z,97741.00
2022-07-28T14:25:48.756Z,97738.00
2022-07-28T14:28:20.805Z,97735.00
2022-07-28T14:30:51.872Z,97729.00
2022-07-28T14:33:22.933Z,97725.00
2022-07-28T14:35:54.280Z,97721.00
2022-07-28T14:38:51.809Z,97718.00
2022-07-28T14:41:17.698Z,97713.00
2022-07-28T14:43:48.823Z,97720.00
2022-07-28T14:46:21.880Z,97713.00
2022-07-28T14:48:53.394Z,97713.00
2022-07-28T14:51:24.499Z,97718.00
2022-07-28T14:53:57.871Z,97717.00
2022-07-28T14:56:29.066Z,97717.00
2022-07-28T14:59:00.166Z,97717.00
2022-07-28T15:01:36.034Z,97720.00
2022-07-28T15:04:07.594Z,97717.00
2022-07-28T15:06:38.640Z,97719.00
2022-07-28T15:09:09.793Z,97714.00
2022-07-28T15:11:41.990Z,97720.00
2022-07-28T15:14:14.709Z,97719.00
2022-07-28T15:16:45.929Z,97718.00
2022-07-28T15:19:17.575Z,97713.00
2022-07-28T15:21:48.682Z,97719.00
2022-07-28T15:24:19.686Z,97716.00
2022-07-28T15:26:50.629Z,97709.00
2022-07-28T15:29:21.643Z,97711.00
2022-07-28T15:31:52.856Z,97711.00
2022-07-28T15:34:24.899Z,97704.00
2022-07-28T15:36:56.166Z,97702.00
2022-07-28T15:39:27.504Z,97702.00
2022-07-28T15:42:02.466Z,97698.00
2022-07-28T15:44:33.671Z,97709.00
2022-07-28T15:47:04.795Z,97706.00
2022-07-28T15:49:35.943Z,97704.00
2022-07-28T15:52:06.970Z,97703.00
2022-07-28T15:54:38.088Z,97700.00
2022-07-28T15:57:09.175Z,97691.00
2022-07-28T15:59:49.689Z,97692.00
2022-07-28T16:02:21.834Z,97691.00
2022-07-28T16:04:53.970Z,97683.00
2022-07-28T16:07:25.645Z,97681.00
2022-07-28T16:09:56.739Z,97686.00
2022-07-28T16:12:27.741Z,97684.00
2022-07-28T16:14:58.698Z,97683.00
2022-07-28T16:17:29.633Z,97677.00
2022-07-28T16:20:02.877Z,97677.00
2022-07-28T16:22:37.506Z,97675.00
2022-07-28T16:25:11.525Z,97681.00
2022-07-28T16:27:48.787Z,97676.00
2022-07-28T16:30:19.869Z,97681.00
2022-07-28T16:32:50.840Z,97677.00
2022-07-28T16:35:21.911Z,97680.00
2022-07-28T16:37:53.103Z,97668.00
2022-07-28T16:40:24.058Z,97670.00
2022-07-28T16:42:55.113Z,97667.00
2022-07-28T16:45:30.673Z,97676.00
2022-07-28T16:48:03.855Z,97665.00
2022-07-28T16:50:35.201Z,97667.00
2022-07-28T16:53:08.939Z,97669.00
2022-07-28T16:55:41.968Z,97671.00
2022-07-28T16:58:13.008Z,97667.00
2022-07-28T17:00:43.986Z,97662.00
2022-07-28T17:03:16.924Z,97663.00
2022-07-28T17:05:47.866Z,97652.00
2022-07-28T17:08:19.062Z,97654.00
2022-07-28T17:10:49.989Z,97657.00
2022-07-28T17:13:21.427Z,97651.00
2022-07-28T17:15:53.995Z,97654.00
2022-07-28T17:18:25.407Z,97656.00
2022-07-28T17:20:56.356Z,97658.00
2022-07-28T17:23:27.306Z,97658.00
2022-07-28T17:26:52.575Z,97667.00
2022-07-28T17:28:53.671Z,97674.00
2022-07-28T17:31:24.787Z,97675.00
2022-07-28T17:33:55.796Z,97676.00
2022-07-28T17:36:26.737Z,97675.00
2022-07-28T17:38:57.690Z,97684.00
2022-07-28T17:41:28.690Z,97677.00
2022-07-28T17:44:01.208Z,97679.00
2022-07-28T17:46:34.828Z,97678.00
2022-07-28T17:49:07.911Z,97683.00
2022-07-28T17:51:38.974Z,97691.00
2022-07-28T17:54:13.526Z,97688.00
2022-07-28T17:56:44.666Z,97696.00
2022-07-28T17:59:15.947Z,97694.00
2022-07-28T18:01:46.974Z,97687.00
2022-07-28T18:04:18.301Z,97684.00
2022-07-28T18:06:49.373Z,97679.00
2022-07-28T18:09:20.358Z,97685.00
2022-07-28T18:11:57.484Z,97682.00
2022-07-28T18:14:30.713Z,97683.00
2022-07-28T18:17:01.928Z,97680.00
2022-07-28T18:19:33.125Z,97686.00
2022-07-28T18:22:04.095Z,97686.00
2022-07-28T18:24:35.023Z,97685.00
2022-07-28T18:27:06.008Z,97690.00
2022-07-28T18:29:38.390Z,97685.00
2022-07-28T18:32:12.144Z,97686.00
2022-07-28T18:34:45.328Z,97679.00
2022-07-28T18:37:16.379Z,97678.00
2022-07-28T18:39:47.314Z,97681.00
2022-07-28T18:42:18.290Z,97675.00
2022-07-28T18:44:49.402Z,97680.00
2022-07-28T18:47:20.304Z,97680.00
2022-07-28T18:49:52.309Z,97686.00
2022-07-28T18:52:23.692Z,97689.00
2022-07-28T18:54:54.626Z,97682.00
2022-07-28T18:57:25.695Z,97673.00
2022-07-28T18:59:56.607Z,97668.00
2022-07-28T19:02:27.774Z,97671.00
2022-07-28T19:04:59.470Z,97677.00
2022-07-28T19:07:30.518Z,97684.00
2022-07-28T19:10:02.498Z,97693.00
2022-07-28T19:12:34.264Z,97696.00
2022-07-28T19:15:06.504Z,97711.00
2022-07-28T19:17:39.889Z,97708.00
2022-07-28T19:20:11.869Z,97709.00
2022-07-28T19:22:43.240Z,97714.00
2022-07-28T19:25:14.158Z,97713.00
2022-07-28T19:27:45.346Z,97718.00
2022-07-28T19:30:16.332Z,97710.00
2022-07-28T19:32:47.254Z,97716.00
2022-07-28T19:35:18.189Z,97719.00
2022-07-28T19:37:49.592Z,97720.00
2022-07-28T19:40:20.518Z,97731.00
2022-07-28T19:42:51.680Z,97736.00
2022-07-28T19:45:22.701Z,97731.00
2022-07-28T19:47:54.633Z,97741.00
2022-07-28T19:50:25.611Z,97750.00
2022-07-28T19:52:57.674Z,97767.00
2022-07-28T19:55:32.285Z,97761.00
2022-07-28T19:58:03.878Z,97773.00
2022-07-28T20:00:34.802Z,97777.00
2022-07-28T20:04:02.612Z,97793.00
2022-07-28T20:05:58.408Z,97792.00
2022-07-28T20:08:29.531Z,97785.00
2022-07-28T20:11:00.575Z,97791.00
2022-07-28T20:13:31.592Z,97790.00
2022-07-28T20:16:02.540Z,97805.00
2022-07-28T20:18:33.522Z,97811.00
2022-07-28T20:21:04.495Z,97820.00
2022-07-28T20:23:35.676Z,97818.00
2022-07-28T20:26:07.121Z,97827.00
2022-07-28T20:28:38.192Z,97843.00
2022-07-28T20:31:13.568Z,97852.00
2022-07-28T20:33:47.765Z,97881.00
2022-07-28T20:36:18.717Z,97902.00
2022-07-28T20:38:49.673Z,97910.00
2022-07-28T20:41:20.664Z,97911.00
2022-07-28T20:44:11.305Z,97914.00
2022-07-28T20:46:42.783Z,97919.00
2022-07-28T20:49:13.771Z,97914.00
2022-07-28T20:51:50.697Z,97933.00
2022-07-28T20:54:22.357Z,97938.00
2022-07-28T20:56:53.747Z,97948.00
2022-07-28T20:59:27.747Z,97945.00
2022-07-28T21:01:59.248Z,97949.00
2022-07-28T21:04:30.248Z,97955.00
2022-07-28T21:07:04.040Z,97959.00
2022-07-28T21:09:35.262Z,97947.00
2022-07-28T21:12:07.088Z,97946.00
2022-07-28T21:14:39.769Z,97955.00
2022-07-28T21:17:10.880Z,97955.00
2022-07-28T21:19:41.960Z,97959.00
2022-07-28T21:22:13.597Z,97954.00
2022-07-28T21:24:44.586Z,97946.00
2022-07-28T21:27:17.746Z,97936.00
2022-07-28T21:29:48.830Z,97926.00
2022-07-28T21:32:19.755Z,97931.00
2022-07-28T21:34:50.642Z,97927.00
2022-07-28T21:37:21.560Z,97931.00
2022-07-28T21:39:53.278Z,97939.00
2022-07-28T21:42:24.224Z,97937.00
2022-07-28T21:44:55.148Z,97934.00
2022-07-28T21:47:26.417Z,97933.00
2022-07-28T21:49:57.962Z,97947.00
2022-07-28T21:52:29.314Z,97942.00
2022-07-28T21:55:01.947Z,97944.00
2022-07-28T21:57:32.926Z,97957.00
2022-07-28T22:00:09.019Z,97955.00
2022-07-28T22:02:41.126Z,97943.00
2022-07-28T22:05:12.153Z,97948.00
2022-07-28T22:07:43.340Z,97953.00
2022-07-28T22:10:15.617Z,97952.00
2022-07-28T22:12:46.741Z,97948.00
2022-07-28T22:15:17.858Z,97954.00
2022-07-28T22:17:48.912Z,97948.00
2022-07-28T22:20:19.830Z,97945.00
2022-07-28T22:22:50.763Z,97949.00
2022-07-28T22:25:21.755Z,97946.00
2022-07-28T22:27:52.706Z,97943.00
2022-07-28T22:30:23.867Z,97944.00
2022-07-28T22:32:54.919Z,97937.00
2022-07-28T22:35:26.087Z,97947.00
2022-07-28T22:37:56.982Z,97960.00
2022-07-28T22:40:27.939Z,97956.00
2022-07-28T22:42:58.872Z,97957.00
2022-07-28T22:45:49.363Z,97958.00
2022-07-28T22:48:20.832Z,97955.00
2022-07-28T22:50:51.836Z,97953.00
2022-07-28T22:53:22.865Z,97956.00
2022-07-28T22:55:53.817Z,97957.00
2022-07-28T22:58:24.775Z,97952.00
2022-07-28T23:00:55.829Z,97954.00
2022-07-28T23:03:29.246Z,97943.00
2022-07-28T23:06:01.193Z,97938.00
2022-07-28T23:08:32.203Z,97928.00
2022-07-28T23:11:03.308Z,97932.00
2022-07-28T23:13:34.313Z,97931.00
2022-07-28T23:16:11.974Z,97934.00
2022-07-28T23:18:44.295Z,97929.00
2022-07-28T23:21:16.049Z,97924.00
2022-07-28T23:23:47.106Z,97933.00
2022-07-28T23:26:18.110Z,97933.00
2022-07-28T23:28:49.099Z,97929.00
2022-07-28T23:31:20.101Z,97935.00
2022-07-28T23:33:55.695Z,97936.00
2022-07-28T23:36:28.480Z,97936.00
2022-07-28T23:38:59.733Z,97929.00
2022-07-28T23:41:30.706Z,97934.00
2022-07-28T23:44:01.677Z,97922.00
2022-07-28T23:46:33.053Z,97920.00
2022-07-28T23:49:04.206Z,97917.00
2022-07-28T23:51:47.139Z,97915.00
2022-07-28T23:54:19.577Z,97918.00
2022-07-28T23:56:56.524Z,97914.00
2022-07-28T23:59:27.461Z,97907.00
